sensor_id;sensor_type;location;lat;lon;timestamp;pressure;altitude;pressure_sealevel;temperature;humidity
12775;BME280;6451;42.630;23.382;2023-07-20T00:02:06;94108.91;;;25.62;100.00
12775;BME280;6451;42.630;23.382;2023-07-20T00:04:33;94107.69;;;25.50;100.00
12775;BME280;6451;42.630;23.382;2023-07-20T00:07:00;94110.31;;;25.19;100.00
12775;BME280;6451;42.630;23.382;2023-07-20T00:09:29;94120.81;;;24.99;100.00
12775;BME280;6451;42.630;23.382;2023-07-20T00:11:56;94125.28;;;24.96;100.00
12775;BME280;6451;42.630;23.382;2023-07-20T00:14:25;94124.25;;;24.65;100.00
12775;BME280;6451;42.630;23.382;2023-07-20T00:16:52;94110.78;;;24.38;100.00
12775;BME280;6451;42.630;23.382;2023-07-20T00:19:22;94107.69;;;24.49;100.00
12775;BME280;6451;42.630;23.382;2023-07-20T00:21:49;94102.56;;;24.34;100.00
12775;BME280;6451;42.630;23.382;2023-07-20T00:24:16;94088.81;;;24.02;100.00
12775;BME280;6451;42.630;23.382;2023-07-20T00:26:45;94091.81;;;24.07;100.00
12775;BME280;6451;42.630;23.382;2023-07-20T00:29:11;94083.28;;;24.14;100.00
12775;BME280;6451;42.630;23.382;2023-07-20T00:31:38;94093.53;;;24.30;100.00
12775;BME280;6451;42.630;23.382;2023-07-20T00:34:05;94081.25;;;24.31;100.00
12775;BME280;6451;42.630;23.382;2023-07-20T00:36:33;94092.94;;;24.39;100.00
12775;BME280;6451;42.630;23.382;2023-07-20T00:39:00;94094.50;;;24.40;100.00
12775;BME280;6451;42.630;23.382;2023-07-20T00:41:29;94082.81;;;24.45;100.00
12775;BME280;6451;42.630;23.382;2023-07-20T00:43:58;94077.06;;;24.39;100.00
12775;BME280;6451;42.630;23.382;2023-07-20T00:46:25;94058.63;;;24.46;100.00
12775;BME280;6451;42.630;23.382;2023-07-20T00:48:52;94084.84;;;24.95;100.00
12775;BME280;6451;42.630;23.382;2023-07-20T00:51:20;94065.56;;;25.05;100.00
12775;BME280;6451;42.630;23.382;2023-07-20T00:53:48;94047.00;;;24.76;100.00
12775;BME280;6451;42.630;23.382;2023-07-20T00:56:15;94048.31;;;24.97;100.00
12775;BME280;6451;42.630;23.382;2023-07-20T00:58:43;94066.53;;;24.73;100.00
12775;BME280;6451;42.630;23.382;2023-07-20T01:01:30;94074.84;;;24.34;100.00
12775;BME280;6451;42.630;23.382;2023-07-20T01:03:57;94073.94;;;24.37;100.00
12775;BME280;6451;42.630;23.382;2023-07-20T01:06:29;94073.78;;;24.16;100.00
12775;BME280;6451;42.630;23.382;2023-07-20T01:09:07;94073.81;;;23.99;100.00
12775;BME280;6451;42.630;23.382;2023-07-20T01:11:38;94096.69;;;23.74;100.00
12775;BME280;6451;42.630;23.382;2023-07-20T01:14:08;94107.28;;;23.47;100.00
12775;BME280;6451;42.630;23.382;2023-07-20T01:16:37;94103.19;;;23.51;100.00
12775;BME280;6451;42.630;23.382;2023-07-20T01:19:05;94085.81;;;23.35;100.00
12775;BME280;6451;42.630;23.382;2023-07-20T01:21:40;94051.06;;;23.01;100.00
12775;BME280;6451;42.630;23.382;2023-07-20T01:24:28;94093.44;;;23.47;100.00
12775;BME280;6451;42.630;23.382;2023-07-20T01:30:38;94076.91;;;23.27;100.00
12775;BME280;6451;42.630;23.382;2023-07-20T01:33:14;94088.41;;;23.42;100.00
12775;BME280;6451;42.630;23.382;2023-07-20T01:35:43;94081.03;;;23.51;100.00
12775;BME280;6451;42.630;23.382;2023-07-20T01:38:12;94089.44;;;23.48;100.00
12775;BME280;6451;42.630;23.382;2023-07-20T01:40:40;94095.94;;;23.41;100.00
12775;BME280;6451;42.630;23.382;2023-07-20T01:43:07;94083.22;;;23.27;100.00
12775;BME280;6451;42.630;23.382;2023-07-20T01:45:34;94065.94;;;23.07;100.00
12775;BME280;6451;42.630;23.382;2023-07-20T01:48:01;94086.34;;;23.29;100.00
12775;BME280;6451;42.630;23.382;2023-07-20T01:50:30;94087.66;;;23.25;100.00
12775;BME280;6451;42.630;23.382;2023-07-20T01:52:57;94092.25;;;23.32;100.00
12775;BME280;6451;42.630;23.382;2023-07-20T01:55:24;94080.28;;;23.35;100.00
12775;BME280;6451;42.630;23.382;2023-07-20T01:57:50;94088.41;;;23.42;100.00
12775;BME280;6451;42.630;23.382;2023-07-20T02:00:18;94082.69;;;23.49;100.00
12775;BME280;6451;42.630;23.382;2023-07-20T02:02:46;94068.88;;;23.33;100.00
12775;BME280;6451;42.630;23.382;2023-07-20T02:05:14;94075.38;;;23.10;100.00
12775;BME280;6451;42.630;23.382;2023-07-20T02:07:43;94082.28;;;23.34;100.00
12775;BME280;6451;42.630;23.382;2023-07-20T02:10:10;94070.69;;;23.23;100.00
12775;BME280;6451;42.630;23.382;2023-07-20T02:12:36;94054.16;;;23.19;100.00
12775;BME280;6451;42.630;23.382;2023-07-20T02:15:04;94075.03;;;23.53;100.00
12775;BME280;6451;42.630;23.382;2023-07-20T02:17:31;94076.38;;;23.48;100.00
12775;BME280;6451;42.630;23.382;2023-07-20T02:19:59;94068.53;;;23.14;100.00
12775;BME280;6451;42.630;23.382;2023-07-20T02:22:26;94067.69;;;23.17;100.00
12775;BME280;6451;42.630;23.382;2023-07-20T02:24:54;94065.41;;;23.12;100.00
12775;BME280;6451;42.630;23.382;2023-07-20T02:27:21;94068.69;;;23.07;100.00
12775;BME280;6451;42.630;23.382;2023-07-20T02:29:48;94061.53;;;23.10;100.00
12775;BME280;6451;42.630;23.382;2023-07-20T02:32:15;94074.47;;;23.29;100.00
12775;BME280;6451;42.630;23.382;2023-07-20T02:34:42;94072.16;;;23.27;100.00
12775;BME280;6451;42.630;23.382;2023-07-20T02:37:09;94030.22;;;22.96;100.00
12775;BME280;6451;42.630;23.382;2023-07-20T02:39:38;94053.41;;;23.19;100.00
12775;BME280;6451;42.630;23.382;2023-07-20T02:42:07;94015.34;;;23.07;100.00
12775;BME280;6451;42.630;23.382;2023-07-20T02:44:33;94056.50;;;23.21;100.00
12775;BME280;6451;42.630;23.382;2023-07-20T02:47:00;94062.56;;;23.16;100.00
12775;BME280;6451;42.630;23.382;2023-07-20T02:49:27;94055.03;;;23.00;100.00
12775;BME280;6451;42.630;23.382;2023-07-20T02:51:56;94043.38;;;23.09;100.00
12775;BME280;6451;42.630;23.382;2023-07-20T02:54:23;94040.53;;;22.96;100.00
12775;BME280;6451;42.630;23.382;2023-07-20T02:56:50;94046.84;;;22.96;100.00
12775;BME280;6451;42.630;23.382;2023-07-20T02:59:18;94037.59;;;22.87;100.00
12775;BME280;6451;42.630;23.382;2023-07-20T03:01:45;94016.97;;;22.71;100.00
12775;BME280;6451;42.630;23.382;2023-07-20T03:04:12;94025.34;;;22.84;100.00
12775;BME280;6451;42.630;23.382;2023-07-20T03:06:39;94041.19;;;23.00;100.00
12775;BME280;6451;42.630;23.382;2023-07-20T03:09:06;94035.47;;;23.07;100.00
12775;BME280;6451;42.630;23.382;2023-07-20T03:11:33;94053.66;;;23.24;100.00
12775;BME280;6451;42.630;23.382;2023-07-20T03:14:00;94053.06;;;23.17;100.00
12775;BME280;6451;42.630;23.382;2023-07-20T03:16:28;94050.38;;;22.97;100.00
12775;BME280;6451;42.630;23.382;2023-07-20T03:18:58;94054.16;;;23.19;100.00
12775;BME280;6451;42.630;23.382;2023-07-20T03:21:25;94040.00;;;23.01;100.00
12775;BME280;6451;42.630;23.382;2023-07-20T03:23:52;94065.59;;;23.05;100.00
12775;BME280;6451;42.630;23.382;2023-07-20T03:26:19;94064.38;;;23.06;100.00
12775;BME280;6451;42.630;23.382;2023-07-20T03:28:46;94064.63;;;23.28;100.00
12775;BME280;6451;42.630;23.382;2023-07-20T03:31:13;94055.03;;;23.00;100.00
12775;BME280;6451;42.630;23.382;2023-07-20T03:33:42;94078.66;;;23.21;100.00
12775;BME280;6451;42.630;23.382;2023-07-20T03:36:10;94057.88;;;23.13;100.00
12775;BME280;6451;42.630;23.382;2023-07-20T03:38:37;94075.78;;;23.41;100.00
12775;BME280;6451;42.630;23.382;2023-07-20T03:41:05;94054.38;;;23.57;100.00
12775;BME280;6451;42.630;23.382;2023-07-20T03:43:31;94059.56;;;23.72;100.00
12775;BME280;6451;42.630;23.382;2023-07-20T03:45:59;94032.84;;;23.49;100.00
12775;BME280;6451;42.630;23.382;2023-07-20T03:48:26;94063.34;;;23.33;100.00
12775;BME280;6451;42.630;23.382;2023-07-20T03:50:54;94061.47;;;23.58;100.00
12775;BME280;6451;42.630;23.382;2023-07-20T03:53:21;94074.56;;;23.87;100.00
12775;BME280;6451;42.630;23.382;2023-07-20T03:55:50;94081.34;;;23.99;100.00
12775;BME280;6451;42.630;23.382;2023-07-20T03:58:18;93992.03;;;23.66;100.00
12775;BME280;6451;42.630;23.382;2023-07-20T04:00:48;94071.88;;;24.12;100.00
12775;BME280;6451;42.630;23.382;2023-07-20T04:03:16;94067.66;;;24.08;100.00
12775;BME280;6451;42.630;23.382;2023-07-20T04:05:43;94080.88;;;24.17;100.00
12775;BME280;6451;42.630;23.382;2023-07-20T04:08:11;94043.00;;;23.97;100.00
12775;BME280;6451;42.630;23.382;2023-07-20T04:10:39;94080.41;;;24.60;100.00
12775;BME280;6451;42.630;23.382;2023-07-20T04:13:06;94056.09;;;24.51;100.00
12775;BME280;6451;42.630;23.382;2023-07-20T04:15:33;94067.03;;;24.29;100.00
12775;BME280;6451;42.630;23.382;2023-07-20T04:18:00;94037.72;;;23.28;100.00
12775;BME280;6451;42.630;23.382;2023-07-20T04:20:27;94073.16;;;23.66;100.00
12775;BME280;6451;42.630;23.382;2023-07-20T04:22:54;94048.59;;;23.81;100.00
12775;BME280;6451;42.630;23.382;2023-07-20T04:25:23;94072.81;;;23.48;100.00
12775;BME280;6451;42.630;23.382;2023-07-20T04:27:50;94060.91;;;23.35;100.00
12775;BME280;6451;42.630;23.382;2023-07-20T04:30:19;94035.47;;;23.07;100.00
12775;BME280;6451;42.630;23.382;2023-07-20T04:32:48;94062.13;;;23.34;100.00
12775;BME280;6451;42.630;23.382;2023-07-20T04:35:17;94054.50;;;23.21;100.00
12775;BME280;6451;42.630;23.382;2023-07-20T04:37:44;94060.13;;;23.34;100.00
12775;BME280;6451;42.630;23.382;2023-07-20T04:40:15;94058.97;;;23.64;100.00
12775;BME280;6451;42.630;23.382;2023-07-20T04:42:43;94054.03;;;23.55;100.00
12775;BME280;6451;42.630;23.382;2023-07-20T04:45:10;94042.38;;;23.77;100.00
12775;BME280;6451;42.630;23.382;2023-07-20T04:47:38;94047.25;;;24.14;100.00
12775;BME280;6451;42.630;23.382;2023-07-20T04:50:06;94039.75;;;23.86;100.00
12775;BME280;6451;42.630;23.382;2023-07-20T04:52:33;94039.91;;;23.95;100.00
12775;BME280;6451;42.630;23.382;2023-07-20T04:54:59;94044.91;;;24.13;100.00
12775;BME280;6451;42.630;23.382;2023-07-20T04:57:26;94020.75;;;24.13;100.00
12775;BME280;6451;42.630;23.382;2023-07-20T04:59:56;93982.88;;;23.81;100.00
12775;BME280;6451;42.630;23.382;2023-07-20T05:02:22;94050.00;;;24.82;100.00
12775;BME280;6451;42.630;23.382;2023-07-20T05:04:49;94046.03;;;25.08;100.00
12775;BME280;6451;42.630;23.382;2023-07-20T05:07:16;94045.69;;;25.54;100.00
12775;BME280;6451;42.630;23.382;2023-07-20T05:09:43;94051.31;;;25.63;100.00
12775;BME280;6451;42.630;23.382;2023-07-20T05:12:10;94035.22;;;25.58;100.00
12775;BME280;6451;42.630;23.382;2023-07-20T05:14:37;94051.66;;;25.52;100.00
12775;BME280;6451;42.630;23.382;2023-07-20T05:17:06;94039.41;;;25.28;100.00
12775;BME280;6451;42.630;23.382;2023-07-20T05:19:35;94039.78;;;25.51;100.00
12775;BME280;6451;42.630;23.382;2023-07-20T05:22:02;94048.00;;;25.55;100.00
12775;BME280;6451;42.630;23.382;2023-07-20T05:24:31;94046.63;;;25.72;100.00
12775;BME280;6451;42.630;23.382;2023-07-20T05:26:58;94053.66;;;25.51;100.00
12775;BME280;6451;42.630;23.382;2023-07-20T05:29:25;94053.69;;;25.86;100.00
12775;BME280;6451;42.630;23.382;2023-07-20T05:31:51;94043.16;;;26.03;100.00
12775;BME280;6451;42.630;23.382;2023-07-20T05:34:20;94051.63;;;25.65;100.00
12775;BME280;6451;42.630;23.382;2023-07-20T05:37:11;94064.09;;;25.73;100.00
12775;BME280;6451;42.630;23.382;2023-07-20T05:39:38;94048.78;;;25.56;100.00
12775;BME280;6451;42.630;23.382;2023-07-20T05:42:05;94042.38;;;26.02;100.00
12775;BME280;6451;42.630;23.382;2023-07-20T05:44:32;94065.41;;;26.03;100.00
12775;BME280;6451;42.630;23.382;2023-07-20T05:46:59;94046.19;;;26.18;100.00
12775;BME280;6451;42.630;23.382;2023-07-20T05:49:27;94055.81;;;26.26;100.00
12775;BME280;6451;42.630;23.382;2023-07-20T05:51:54;94041.84;;;26.17;100.00
12775;BME280;6451;42.630;23.382;2023-07-20T05:54:22;94067.25;;;26.50;100.00
12775;BME280;6451;42.630;23.382;2023-07-20T05:56:49;94062.38;;;26.94;100.00
12775;BME280;6451;42.630;23.382;2023-07-20T05:59:16;94076.78;;;27.02;100.00
12775;BME280;6451;42.630;23.382;2023-07-20T06:01:44;94078.66;;;26.74;98.84
12775;BME280;6451;42.630;23.382;2023-07-20T06:04:13;94079.63;;;26.80;99.10
12775;BME280;6451;42.630;23.382;2023-07-20T06:06:41;94057.22;;;27.14;97.01
12775;BME280;6451;42.630;23.382;2023-07-20T06:09:08;94056.16;;;27.30;97.43
12775;BME280;6451;42.630;23.382;2023-07-20T06:11:37;94055.28;;;27.02;98.77
12775;BME280;6451;42.630;23.382;2023-07-20T06:14:04;94074.63;;;27.46;94.77
12775;BME280;6451;42.630;23.382;2023-07-20T06:16:31;94061.97;;;27.73;91.83
12775;BME280;6451;42.630;23.382;2023-07-20T06:18:59;94067.22;;;27.61;92.47
12775;BME280;6451;42.630;23.382;2023-07-20T06:21:26;94064.13;;;27.87;92.04
12775;BME280;6451;42.630;23.382;2023-07-20T06:23:54;94024.66;;;27.70;93.09
12775;BME280;6451;42.630;23.382;2023-07-20T06:26:22;94040.53;;;27.60;92.41
12775;BME280;6451;42.630;23.382;2023-07-20T06:28:49;94053.56;;;27.63;92.70
12775;BME280;6451;42.630;23.382;2023-07-20T06:31:16;94039.63;;;27.54;91.91
12775;BME280;6451;42.630;23.382;2023-07-20T06:33:43;94034.25;;;27.69;89.00
12775;BME280;6451;42.630;23.382;2023-07-20T06:36:10;94033.59;;;27.74;89.64
12775;BME280;6451;42.630;23.382;2023-07-20T06:38:37;93991.97;;;27.70;88.76
12775;BME280;6451;42.630;23.382;2023-07-20T06:41:05;94050.19;;;27.87;87.95
12775;BME280;6451;42.630;23.382;2023-07-20T06:43:32;94048.03;;;27.82;87.82
12775;BME280;6451;42.630;23.382;2023-07-20T06:45:59;94032.06;;;27.91;90.15
12775;BME280;6451;42.630;23.382;2023-07-20T06:48:26;94040.41;;;28.10;90.38
12775;BME280;6451;42.630;23.382;2023-07-20T06:50:53;94035.47;;;27.86;91.13
12775;BME280;6451;42.630;23.382;2023-07-20T06:53:20;94050.44;;;28.44;88.15
12775;BME280;6451;42.630;23.382;2023-07-20T06:55:47;94051.72;;;28.06;90.13
12775;BME280;6451;42.630;23.382;2023-07-20T06:58:16;93999.69;;;27.94;85.36
12775;BME280;6451;42.630;23.382;2023-07-20T07:00:47;94048.22;;;28.66;82.50
12775;BME280;6451;42.630;23.382;2023-07-20T07:03:15;94005.53;;;28.23;86.26
12775;BME280;6451;42.630;23.382;2023-07-20T07:05:43;94052.06;;;28.78;83.39
12775;BME280;6451;42.630;23.382;2023-07-20T07:08:10;94066.22;;;29.17;82.80
12775;BME280;6451;42.630;23.382;2023-07-20T07:10:37;94070.72;;;29.14;85.09
12775;BME280;6451;42.630;23.382;2023-07-20T07:13:06;94073.19;;;29.45;85.11
12775;BME280;6451;42.630;23.382;2023-07-20T07:15:34;94084.16;;;29.58;85.19
12775;BME280;6451;42.630;23.382;2023-07-20T07:18:01;94084.00;;;29.28;85.56
12775;BME280;6451;42.630;23.382;2023-07-20T07:20:29;94093.00;;;28.99;87.66
12775;BME280;6451;42.630;23.382;2023-07-20T07:22:56;94102.41;;;28.14;92.86
12775;BME280;6451;42.630;23.382;2023-07-20T07:25:23;94115.09;;;28.06;88.58
12775;BME280;6451;42.630;23.382;2023-07-20T07:27:51;94121.16;;;28.13;89.73
12775;BME280;6451;42.630;23.382;2023-07-20T07:30:19;94118.38;;;28.04;92.53
12775;BME280;6451;42.630;23.382;2023-07-20T07:32:47;94122.88;;;28.11;93.73
12775;BME280;6451;42.630;23.382;2023-07-20T07:35:14;94089.38;;;28.29;93.15
12775;BME280;6451;42.630;23.382;2023-07-20T07:37:41;94088.31;;;27.81;95.02
12775;BME280;6451;42.630;23.382;2023-07-20T07:40:09;94114.34;;;28.05;97.42
12775;BME280;6451;42.630;23.382;2023-07-20T07:42:36;94070.50;;;27.78;93.92
12775;BME280;6451;42.630;23.382;2023-07-20T07:45:03;94102.88;;;28.40;91.44
12775;BME280;6451;42.630;23.382;2023-07-20T07:47:30;94066.38;;;28.71;90.16
12775;BME280;6451;42.630;23.382;2023-07-20T07:49:59;94101.03;;;28.97;92.24
12775;BME280;6451;42.630;23.382;2023-07-20T07:52:26;94100.53;;;29.41;91.11
12775;BME280;6451;42.630;23.382;2023-07-20T07:54:54;94084.69;;;29.14;91.95
12775;BME280;6451;42.630;23.382;2023-07-20T07:57:20;94067.13;;;29.14;90.66
12775;BME280;6451;42.630;23.382;2023-07-20T07:59:48;94060.91;;;29.19;90.22
12775;BME280;6451;42.630;23.382;2023-07-20T08:02:15;94068.13;;;29.34;87.48
12775;BME280;6451;42.630;23.382;2023-07-20T08:04:42;94053.22;;;29.04;87.10
12775;BME280;6451;42.630;23.382;2023-07-20T08:07:10;94053.75;;;29.75;85.67
12775;BME280;6451;42.630;23.382;2023-07-20T08:09:37;94058.22;;;29.57;86.74
12775;BME280;6451;42.630;23.382;2023-07-20T08:12:05;94070.72;;;29.71;87.92
12775;BME280;6451;42.630;23.382;2023-07-20T08:14:33;94086.13;;;29.90;84.13
12775;BME280;6451;42.630;23.382;2023-07-20T08:17:00;94092.56;;;29.58;84.36
12775;BME280;6451;42.630;23.382;2023-07-20T08:19:27;94111.09;;;29.46;84.40
12775;BME280;6451;42.630;23.382;2023-07-20T08:21:54;94108.78;;;29.45;83.83
12775;BME280;6451;42.630;23.382;2023-07-20T08:24:23;94097.63;;;29.35;86.05
12775;BME280;6451;42.630;23.382;2023-07-20T08:26:49;94109.16;;;29.28;89.82
12775;BME280;6451;42.630;23.382;2023-07-20T08:29:16;94141.69;;;29.07;90.37
12775;BME280;6451;42.630;23.382;2023-07-20T08:31:43;94093.84;;;28.63;94.28
12775;BME280;6451;42.630;23.382;2023-07-20T08:34:11;94097.66;;;28.93;96.68
12775;BME280;6451;42.630;23.382;2023-07-20T08:36:38;94104.41;;;28.50;98.65
12775;BME280;6451;42.630;23.382;2023-07-20T08:39:05;94093.25;;;28.50;99.69
12775;BME280;6451;42.630;23.382;2023-07-20T08:41:35;94111.22;;;28.58;98.07
12775;BME280;6451;42.630;23.382;2023-07-20T08:44:04;94071.72;;;27.95;96.61
12775;BME280;6451;42.630;23.382;2023-07-20T08:46:31;94110.31;;;27.88;92.09
12775;BME280;6451;42.630;23.382;2023-07-20T08:48:59;94098.84;;;28.04;90.35
12775;BME280;6451;42.630;23.382;2023-07-20T08:51:28;94066.94;;;27.68;88.51
12775;BME280;6451;42.630;23.382;2023-07-20T08:53:56;94111.28;;;28.31;87.44
12775;BME280;6451;42.630;23.382;2023-07-20T08:56:23;94092.34;;;28.16;82.68
12775;BME280;6451;42.630;23.382;2023-07-20T08:58:53;94111.72;;;28.11;81.98
12775;BME280;6451;42.630;23.382;2023-07-20T09:01:20;94088.78;;;28.16;81.95
12775;BME280;6451;42.630;23.382;2023-07-20T09:03:48;94092.03;;;28.42;81.50
12775;BME280;6451;42.630;23.382;2023-07-20T09:06:15;94040.91;;;27.99;81.74
12775;BME280;6451;42.630;23.382;2023-07-20T09:08:42;94069.69;;;28.42;81.96
12775;BME280;6451;42.630;23.382;2023-07-20T09:11:11;94092.31;;;28.44;80.13
12775;BME280;6451;42.630;23.382;2023-07-20T09:13:38;94084.41;;;28.42;79.03
12775;BME280;6451;42.630;23.382;2023-07-20T09:16:07;94092.84;;;28.85;78.37
12775;BME280;6451;42.630;23.382;2023-07-20T09:18:34;94083.41;;;29.24;75.77
12775;BME280;6451;42.630;23.382;2023-07-20T09:21:03;94045.44;;;29.08;74.60
12775;BME280;6451;42.630;23.382;2023-07-20T09:23:31;94079.66;;;29.27;74.54
12775;BME280;6451;42.630;23.382;2023-07-20T09:25:58;94085.91;;;29.55;74.11
12775;BME280;6451;42.630;23.382;2023-07-20T09:28:25;94077.69;;;29.19;73.22
12775;BME280;6451;42.630;23.382;2023-07-20T09:30:54;94078.41;;;29.28;73.52
12775;BME280;6451;42.630;23.382;2023-07-20T09:33:22;94063.84;;;29.24;73.18
12775;BME280;6451;42.630;23.382;2023-07-20T09:35:49;94041.63;;;29.30;71.13
12775;BME280;6451;42.630;23.382;2023-07-20T09:38:16;94052.25;;;29.17;70.14
12775;BME280;6451;42.630;23.382;2023-07-20T09:40:43;94081.50;;;29.30;69.30
12775;BME280;6451;42.630;23.382;2023-07-20T09:43:10;94066.44;;;29.61;68.85
12775;BME280;6451;42.630;23.382;2023-07-20T09:45:40;94078.84;;;30.08;66.67
12775;BME280;6451;42.630;23.382;2023-07-20T09:48:08;94071.13;;;29.79;66.50
12775;BME280;6451;42.630;23.382;2023-07-20T09:50:40;94069.28;;;30.00;65.26
12775;BME280;6451;42.630;23.382;2023-07-20T09:53:11;94057.25;;;30.08;63.22
12775;BME280;6451;42.630;23.382;2023-07-20T09:55:41;94049.97;;;30.02;61.98
12775;BME280;6451;42.630;23.382;2023-07-20T09:58:08;94057.66;;;30.31;62.24
12775;BME280;6451;42.630;23.382;2023-07-20T10:00:36;94016.53;;;30.22;61.85
12775;BME280;6451;42.630;23.382;2023-07-20T10:03:04;94032.00;;;30.62;61.64
12775;BME280;6451;42.630;23.382;2023-07-20T10:05:33;94006.34;;;29.95;62.42
12775;BME280;6451;42.630;23.382;2023-07-20T10:08:03;94039.72;;;30.23;62.61
12775;BME280;6451;42.630;23.382;2023-07-20T10:10:33;94045.31;;;30.23;61.51
12775;BME280;6451;42.630;23.382;2023-07-20T10:13:01;94021.06;;;30.34;58.77
12775;BME280;6451;42.630;23.382;2023-07-20T10:15:33;94026.66;;;30.64;59.14
12775;BME280;6451;42.630;23.382;2023-07-20T10:18:06;94040.56;;;30.29;58.70
12775;BME280;6451;42.630;23.382;2023-07-20T10:20:36;94033.16;;;30.40;57.13
12775;BME280;6451;42.630;23.382;2023-07-20T10:23:07;94041.59;;;31.05;53.88
12775;BME280;6451;42.630;23.382;2023-07-20T10:25:35;94049.75;;;30.88;53.98
12775;BME280;6451;42.630;23.382;2023-07-20T10:28:04;94051.09;;;31.43;51.97
12775;BME280;6451;42.630;23.382;2023-07-20T10:30:32;94052.56;;;31.38;50.10
12775;BME280;6451;42.630;23.382;2023-07-20T10:33:00;94049.81;;;31.09;51.41
12775;BME280;6451;42.630;23.382;2023-07-20T10:35:29;94023.03;;;31.22;51.81
12775;BME280;6451;42.630;23.382;2023-07-20T10:38:00;94036.56;;;31.79;51.76
12775;BME280;6451;42.630;23.382;2023-07-20T10:40:30;94036.41;;;31.89;51.30
12775;BME280;6451;42.630;23.382;2023-07-20T10:43:02;94050.28;;;31.57;50.48
12775;BME280;6451;42.630;23.382;2023-07-20T10:45:37;94045.50;;;30.63;52.61
12775;BME280;6451;42.630;23.382;2023-07-20T10:48:09;94043.19;;;30.47;52.54
12775;BME280;6451;42.630;23.382;2023-07-20T10:50:40;94027.44;;;30.20;56.07
12775;BME280;6451;42.630;23.382;2023-07-20T10:53:11;93997.38;;;30.94;54.95
12775;BME280;6451;42.630;23.382;2023-07-20T10:55:43;93963.66;;;30.89;56.22
12775;BME280;6451;42.630;23.382;2023-07-20T10:58:13;93990.34;;;31.19;55.66
12775;BME280;6451;42.630;23.382;2023-07-20T11:00:57;94013.88;;;31.42;54.76
12775;BME280;6451;42.630;23.382;2023-07-20T11:03:30;93999.50;;;31.35;54.35
12775;BME280;6451;42.630;23.382;2023-07-20T11:05:58;93998.47;;;31.52;54.36
12775;BME280;6451;42.630;23.382;2023-07-20T11:08:41;93964.78;;;31.93;53.15
12775;BME280;6451;42.630;23.382;2023-07-20T11:11:26;93963.06;;;32.01;53.00
12775;BME280;6451;42.630;23.382;2023-07-20T11:13:57;93957.56;;;32.13;52.55
12775;BME280;6451;42.630;23.382;2023-07-20T11:16:39;93967.78;;;32.99;50.65
12775;BME280;6451;42.630;23.382;2023-07-20T11:19:14;93967.63;;;33.19;50.06
12775;BME280;6451;42.630;23.382;2023-07-20T11:21:42;93968.72;;;33.33;49.29
12775;BME280;6451;42.630;23.382;2023-07-20T11:24:09;93980.63;;;33.54;49.96
12775;BME280;6451;42.630;23.382;2023-07-20T11:26:47;93961.66;;;33.43;51.59
12775;BME280;6451;42.630;23.382;2023-07-20T11:29:15;93967.75;;;33.42;51.89
12775;BME280;6451;42.630;23.382;2023-07-20T11:31:44;93966.84;;;33.62;49.05
12775;BME280;6451;42.630;23.382;2023-07-20T11:34:13;93973.84;;;33.35;48.47
12775;BME280;6451;42.630;23.382;2023-07-20T11:36:41;93948.22;;;33.22;47.96
12775;BME280;6451;42.630;23.382;2023-07-20T11:39:09;93908.22;;;33.01;48.46
12775;BME280;6451;42.630;23.382;2023-07-20T11:41:36;93957.44;;;33.28;48.67
12775;BME280;6451;42.630;23.382;2023-07-20T11:44:05;93949.25;;;33.24;48.96
12775;BME280;6451;42.630;23.382;2023-07-20T11:46:33;93936.84;;;33.47;48.63
12775;BME280;6451;42.630;23.382;2023-07-20T11:49:00;93939.53;;;33.25;49.13
12775;BME280;6451;42.630;23.382;2023-07-20T11:51:29;93935.16;;;33.67;48.82
12775;BME280;6451;42.630;23.382;2023-07-20T11:53:56;93939.31;;;33.29;49.19
12775;BME280;6451;42.630;23.382;2023-07-20T11:56:24;93934.88;;;33.16;50.08
12775;BME280;6451;42.630;23.382;2023-07-20T11:58:54;93922.50;;;32.91;50.48
12775;BME280;6451;42.630;23.382;2023-07-20T12:01:24;93927.44;;;33.08;50.96
12775;BME280;6451;42.630;23.382;2023-07-20T12:03:55;93932.16;;;32.85;49.66
12775;BME280;6451;42.630;23.382;2023-07-20T12:06:23;93911.03;;;33.01;50.04
12775;BME280;6451;42.630;23.382;2023-07-20T12:08:53;93870.25;;;33.28;50.24
12775;BME280;6451;42.630;23.382;2023-07-20T12:11:31;93901.69;;;33.26;48.29
12775;BME280;6451;42.630;23.382;2023-07-20T12:13:58;93891.41;;;33.12;47.10
12775;BME280;6451;42.630;23.382;2023-07-20T12:16:28;93895.84;;;33.30;48.79
12775;BME280;6451;42.630;23.382;2023-07-20T12:19:02;93891.75;;;33.31;46.91
12775;BME280;6451;42.630;23.382;2023-07-20T12:21:29;93869.03;;;32.86;45.85
12775;BME280;6451;42.630;23.382;2023-07-20T12:23:57;93897.13;;;33.29;45.67
12775;BME280;6451;42.630;23.382;2023-07-20T12:26:25;93907.00;;;33.07;43.40
12775;BME280;6451;42.630;23.382;2023-07-20T12:28:52;93901.56;;;33.46;43.65
12775;BME280;6451;42.630;23.382;2023-07-20T12:31:19;93896.22;;;33.60;43.31
12775;BME280;6451;42.630;23.382;2023-07-20T12:33:48;93867.66;;;33.18;42.83
12775;BME280;6451;42.630;23.382;2023-07-20T12:36:15;93894.16;;;33.55;42.61
12775;BME280;6451;42.630;23.382;2023-07-20T12:38:43;93891.41;;;33.77;42.40
12775;BME280;6451;42.630;23.382;2023-07-20T12:41:11;93887.63;;;34.19;42.05
12775;BME280;6451;42.630;23.382;2023-07-20T12:43:39;93898.38;;;34.10;41.01
12775;BME280;6451;42.630;23.382;2023-07-20T12:46:06;93889.59;;;33.68;42.35
12775;BME280;6451;42.630;23.382;2023-07-20T12:48:33;93890.38;;;33.74;43.04
12775;BME280;6451;42.630;23.382;2023-07-20T12:51:04;93879.94;;;33.92;41.19
12775;BME280;6451;42.630;23.382;2023-07-20T12:53:31;93872.44;;;33.61;41.14
12775;BME280;6451;42.630;23.382;2023-07-20T12:55:58;93891.22;;;33.97;40.78
12775;BME280;6451;42.630;23.382;2023-07-20T12:58:25;93884.25;;;33.87;38.75
12775;BME280;6451;42.630;23.382;2023-07-20T13:00:53;93883.53;;;33.98;36.82
12775;BME280;6451;42.630;23.382;2023-07-20T13:03:20;93873.81;;;34.10;36.43
12775;BME280;6451;42.630;23.382;2023-07-20T13:05:47;93851.03;;;34.03;35.86